createdAt,value
2022-12-19T00:05:50.916Z,14.50
2022-12-19T00:08:18.587Z,15.60
2022-12-19T00:10:55.819Z,15.75
2022-12-19T00:13:23.399Z,15.73
2022-12-19T00:15:50.984Z,15.70
2022-12-19T00:18:18.706Z,14.82
2022-12-19T00:20:46.450Z,15.50
2022-12-19T00:23:15.334Z,15.87
2022-12-19T00:25:46.063Z,16.42
2022-12-19T00:28:14.769Z,15.10
2022-12-19T00:30:44.079Z,15.63
2022-12-19T00:33:11.746Z,15.82
2022-12-19T00:35:39.596Z,15.05
2022-12-19T00:38:07.339Z,15.65
2022-12-19T00:40:36.260Z,14.77
2022-12-19T00:43:04.174Z,14.13
2022-12-19T00:45:31.939Z,14.38
2022-12-19T00:48:00.445Z,15.25
2022-12-19T00:50:27.954Z,15.05
2022-12-19T00:52:55.396Z,14.82
2022-12-19T00:55:23.073Z,14.35
2022-12-19T00:57:52.547Z,15.38
2022-12-19T01:00:23.321Z,15.00
2022-12-19T01:02:51.082Z,15.40
2022-12-19T01:05:18.781Z,16.02
2022-12-19T01:07:46.275Z,16.05
2022-12-19T01:10:14.022Z,15.45
2022-12-19T01:12:46.640Z,16.27
2022-12-19T01:15:20.643Z,16.08
2022-12-19T01:17:48.893Z,14.60
2022-12-19T01:20:19.432Z,16.23
2022-12-19T01:22:54.212Z,15.32
2022-12-19T01:25:22.042Z,14.93
2022-12-19T01:27:49.653Z,15.43
2022-12-19T01:30:18.978Z,14.93
2022-12-19T01:32:47.591Z,15.35
2022-12-19T01:35:21.792Z,15.60
2022-12-19T01:37:50.181Z,14.80
2022-12-19T01:40:17.865Z,14.23
2022-12-19T01:42:45.557Z,15.43
2022-12-19T01:45:33.881Z,14.93
2022-12-19T01:48:15.988Z,15.15
2022-12-19T01:50:58.439Z,15.25
2022-12-19T01:53:33.205Z,14.48
2022-12-19T01:56:09.280Z,14.73
2022-12-19T01:58:39.412Z,14.82
2022-12-19T02:01:08.729Z,14.23
2022-12-19T02:03:38.490Z,13.60
2022-12-19T02:06:07.205Z,14.18
2022-12-19T02:08:36.038Z,15.02
2022-12-19T02:11:03.647Z,13.52
2022-12-19T02:13:31.561Z,13.63
2022-12-19T02:16:04.693Z,14.70
2022-12-19T02:18:40.889Z,14.60
2022-12-19T02:21:21.485Z,13.80
2022-12-19T02:24:15.469Z,14.52
2022-12-19T02:26:58.787Z,14.97
2022-12-19T02:30:09.066Z,13.93
2022-12-19T02:32:43.466Z,14.65
2022-12-19T02:35:15.617Z,14.02
2022-12-19T02:37:48.124Z,13.70
2022-12-19T02:40:21.383Z,13.57
2022-12-19T02:42:51.864Z,14.57
2022-12-19T02:45:26.987Z,13.85
2022-12-19T02:47:58.424Z,14.48
2022-12-19T02:50:37.418Z,13.80
2022-12-19T02:53:04.943Z,15.20
2022-12-19T02:55:36.252Z,14.57
2022-12-19T02:58:37.652Z,14.00
2022-12-19T03:01:13.990Z,13.60
2022-12-19T03:03:49.983Z,13.50
2022-12-19T03:06:23.687Z,13.97
2022-12-19T03:08:56.707Z,14.48
2022-12-19T03:11:28.510Z,13.73
2022-12-19T03:13:58.873Z,13.90
2022-12-19T03:16:26.696Z,14.68
2022-12-19T03:18:56.591Z,13.30
2022-12-19T03:21:27.404Z,14.27
2022-12-19T03:23:56.754Z,13.77
2022-12-19T03:26:26.854Z,14.10
2022-12-19T03:28:56.749Z,13.95
2022-12-19T03:31:26.362Z,13.55
2022-12-19T03:33:58.545Z,13.40
2022-12-19T03:36:29.917Z,13.10
2022-12-19T03:38:58.203Z,13.90
2022-12-19T03:41:40.271Z,14.10
2022-12-19T03:44:08.808Z,13.05
2022-12-19T03:46:39.865Z,13.45
2022-12-19T03:49:09.018Z,13.93
2022-12-19T03:51:42.699Z,13.45
2022-12-19T03:54:14.416Z,13.52
2022-12-19T03:56:47.825Z,13.80
2022-12-19T03:59:19.256Z,13.47
2022-12-19T04:01:47.731Z,14.38
2022-12-19T04:04:17.144Z,13.47
2022-12-19T04:06:45.202Z,13.48
2022-12-19T04:09:16.754Z,13.77
2022-12-19T04:11:52.405Z,13.60
2022-12-19T04:14:23.444Z,13.82
2022-12-19T04:16:57.218Z,13.23
2022-12-19T04:19:32.050Z,13.65
2022-12-19T04:22:04.829Z,13.57
2022-12-19T04:24:35.863Z,14.00
2022-12-19T04:27:06.773Z,13.65
2022-12-19T04:29:36.836Z,14.32
2022-12-19T04:32:07.308Z,14.43
2022-12-19T04:34:40.197Z,13.65
2022-12-19T04:37:12.259Z,14.07
2022-12-19T04:39:40.085Z,13.32
2022-12-19T04:42:07.632Z,12.70
2022-12-19T04:44:35.166Z,13.82
2022-12-19T04:47:03.481Z,13.27
2022-12-19T04:49:31.242Z,13.68
2022-12-19T04:52:00.294Z,13.00
2022-12-19T04:54:28.330Z,12.65
2022-12-19T04:56:56.300Z,13.95
2022-12-19T04:59:24.756Z,13.10
2022-12-19T05:01:52.582Z,13.30
2022-12-19T05:04:20.429Z,13.02
2022-12-19T05:06:48.840Z,12.73
2022-12-19T05:09:17.774Z,12.60
2022-12-19T05:11:45.497Z,13.57
2022-12-19T05:14:13.368Z,14.00
2022-12-19T05:16:41.175Z,12.73
2022-12-19T05:19:09.607Z,12.85
2022-12-19T05:21:37.065Z,12.57
2022-12-19T05:24:05.339Z,13.05
2022-12-19T05:26:34.334Z,13.07
2022-12-19T05:29:02.836Z,12.65
2022-12-19T05:31:30.621Z,13.13
2022-12-19T05:33:58.174Z,13.20
2022-12-19T05:36:32.180Z,12.80
2022-12-19T05:39:00.245Z,12.73
2022-12-19T05:41:27.816Z,12.88
2022-12-19T05:43:57.146Z,12.70
2022-12-19T05:46:25.666Z,13.95
2022-12-19T05:48:53.405Z,13.18
2022-12-19T05:51:22.149Z,13.32
2022-12-19T05:53:50.044Z,13.20
2022-12-19T05:56:19.603Z,13.02
2022-12-19T05:58:47.830Z,14.00
2022-12-19T06:01:18.729Z,13.13
2022-12-19T06:03:46.366Z,13.75
2022-12-19T06:06:15.288Z,13.32
2022-12-19T06:08:43.383Z,13.38
2022-12-19T06:11:11.787Z,13.40
2022-12-19T06:13:39.922Z,13.85
2022-12-19T06:16:10.416Z,12.65
2022-12-19T06:18:45.211Z,13.23
2022-12-19T06:21:14.759Z,13.10
2022-12-19T06:23:43.275Z,12.35
2022-12-19T06:26:18.722Z,13.68
2022-12-19T06:28:48.067Z,11.82
2022-12-19T06:31:16.840Z,12.63
2022-12-19T06:33:45.697Z,13.70
2022-12-19T06:36:16.004Z,13.07
2022-12-19T06:38:43.576Z,10.52
2022-12-19T06:41:29.654Z,9.77
2022-12-19T06:43:59.256Z,9.07
2022-12-19T06:46:26.852Z,6.65
2022-12-19T06:48:55.785Z,5.75
2022-12-19T06:51:24.597Z,2.72
2022-12-19T06:53:53.644Z,2.10
2022-12-19T06:56:21.713Z,2.70
2022-12-19T06:58:50.035Z,1.27
2022-12-19T07:01:18.328Z,1.35
2022-12-19T07:03:48.182Z,1.60
2022-12-19T07:06:20.655Z,1.07
2022-12-19T07:08:48.907Z,0.80
2022-12-19T07:11:16.478Z,1.00
2022-12-19T07:13:44.079Z,0.40
2022-12-19T07:16:12.038Z,0.50
2022-12-19T07:18:40.969Z,0.50
2022-12-19T07:21:11.306Z,0.60
2022-12-19T07:23:40.844Z,0.35
2022-12-19T07:26:08.457Z,0.20
2022-12-19T07:28:36.611Z,0.17
2022-12-19T07:31:05.350Z,0.60
2022-12-19T07:33:33.716Z,0.60
2022-12-19T07:36:01.417Z,0.20
2022-12-19T07:38:29.740Z,0.20
2022-12-19T07:41:01.987Z,0.50
2022-12-19T07:43:30.633Z,0.80
2022-12-19T07:45:58.437Z,0.00
2022-12-19T07:48:28.884Z,0.80
2022-12-19T07:50:56.437Z,1.27
2022-12-19T07:53:24.029Z,0.00
2022-12-19T07:55:51.707Z,0.20
2022-12-19T07:58:20.781Z,0.15
2022-12-19T08:00:55.238Z,0.50
2022-12-19T08:03:23.049Z,0.47
2022-12-19T08:05:51.130Z,0.28
2022-12-19T08:08:19.094Z,0.20
2022-12-19T08:10:47.899Z,0.15
2022-12-19T08:13:15.730Z,0.10
2022-12-19T08:15:44.734Z,0.90
2022-12-19T08:18:12.599Z,0.50
2022-12-19T08:20:40.399Z,0.30
2022-12-19T08:23:08.376Z,0.35
2022-12-19T08:25:35.982Z,0.55
2022-12-19T08:28:03.810Z,0.50
2022-12-19T08:30:31.656Z,0.90
2022-12-19T08:33:00.768Z,0.03
2022-12-19T08:35:28.377Z,0.60
2022-12-19T08:37:56.222Z,0.55
2022-12-19T08:40:24.325Z,0.10
2022-12-19T08:42:52.395Z,0.70
2022-12-19T08:45:20.193Z,0.20
2022-12-19T08:47:48.235Z,0.50
2022-12-19T08:50:17.393Z,0.10
2022-12-19T08:52:44.993Z,0.20
2022-12-19T08:55:12.836Z,0.20
2022-12-19T08:57:40.590Z,2.17
2022-12-19T09:00:09.890Z,1.43
2022-12-19T09:02:38.747Z,0.60
2022-12-19T09:06:01.766Z,0.00
2022-12-19T09:08:00.916Z,0.05
2022-12-19T09:10:30.535Z,0.10
2022-12-19T09:12:58.322Z,0.10
2022-12-19T09:15:26.209Z,0.00
2022-12-19T09:17:54.861Z,0.20
2022-12-19T09:20:25.401Z,0.80
2022-12-19T09:22:55.351Z,0.60
2022-12-19T09:25:24.362Z,0.90
2022-12-19T09:28:25.932Z,0.40
2022-12-19T09:30:39.762Z,0.30
2022-12-19T09:33:07.545Z,1.35
2022-12-19T09:35:37.034Z,0.30
2022-12-19T09:38:04.864Z,0.32
2022-12-19T09:40:44.270Z,0.20
2022-12-19T09:43:22.103Z,0.45
2022-12-19T09:45:54.931Z,0.10
2022-12-19T09:48:24.266Z,0.47
2022-12-19T09:51:09.359Z,0.50
2022-12-19T09:53:45.913Z,0.00
2022-12-19T09:56:34.066Z,0.30
2022-12-19T09:59:15.377Z,0.38
2022-12-19T10:01:50.891Z,0.20
2022-12-19T10:04:20.047Z,0.80
2022-12-19T10:07:12.514Z,0.90
2022-12-19T10:11:29.162Z,1.00
2022-12-19T10:12:50.985Z,0.10
2022-12-19T10:15:24.828Z,0.70
2022-12-19T10:18:06.541Z,0.40
2022-12-19T10:20:37.167Z,0.28
2022-12-19T10:23:19.180Z,0.90
2022-12-19T10:25:53.102Z,0.52
2022-12-19T10:28:39.430Z,0.70
2022-12-19T10:31:21.472Z,0.13
2022-12-19T10:33:57.217Z,0.13
2022-12-19T10:36:48.801Z,0.60
2022-12-19T10:39:18.828Z,1.60
2022-12-19T10:41:47.772Z,0.70
2022-12-19T10:44:19.506Z,0.30
2022-12-19T10:46:49.862Z,0.80
2022-12-19T10:49:19.083Z,0.25
2022-12-19T10:51:54.854Z,1.27
2022-12-19T10:54:33.069Z,0.17
2022-12-19T10:57:19.386Z,0.10
2022-12-19T11:00:00.250Z,0.00
2022-12-19T11:02:35.530Z,0.03
2022-12-19T11:05:03.776Z,0.30
2022-12-19T11:07:31.756Z,0.10
2022-12-19T11:10:23.138Z,0.20
2022-12-19T11:18:14.375Z,0.10
2022-12-19T11:20:12.307Z,0.60
2022-12-19T11:27:03.788Z,0.80
2022-12-19T11:29:54.947Z,0.00
2022-12-19T11:30:09.509Z,0.15
2022-12-19T11:30:45.890Z,0.43
2022-12-19T11:33:16.857Z,0.25
2022-12-19T11:35:50.204Z,0.10
2022-12-19T11:38:21.745Z,0.30
2022-12-19T11:40:52.822Z,0.65
2022-12-19T11:43:43.944Z,1.40
2022-12-19T11:46:22.390Z,0.00
2022-12-19T11:48:56.164Z,0.10
2022-12-19T11:51:29.626Z,0.50
2022-12-19T11:54:02.183Z,0.00
2022-12-19T11:56:30.417Z,0.40
2022-12-19T11:59:02.025Z,0.80
2022-12-19T12:01:43.638Z,0.40
2022-12-19T12:04:34.044Z,0.30
2022-12-19T12:07:04.116Z,0.45
2022-12-19T12:12:55.099Z,0.30
2022-12-19T12:18:38.386Z,0.00
2022-12-19T12:28:34.979Z,0.50
2022-12-19T12:28:44.066Z,0.70
2022-12-19T12:31:21.282Z,0.10
2022-12-19T12:31:42.780Z,0.50
2022-12-19T12:31:45.831Z,0.40
2022-12-19T12:31:50.066Z,0.10
2022-12-19T12:35:30.229Z,0.65
2022-12-19T12:39:18.302Z,0.00
2022-12-19T12:42:05.796Z,1.25
2022-12-19T12:44:41.093Z,0.50
2022-12-19T12:47:16.963Z,0.90
2022-12-19T12:49:46.210Z,0.35
2022-12-19T12:52:16.756Z,0.80
2022-12-19T12:54:51.348Z,0.10
2022-12-19T12:57:21.964Z,0.40
2022-12-19T13:00:18.243Z,0.30
2022-12-19T13:02:48.097Z,0.00
2022-12-19T13:05:32.590Z,0.70
2022-12-19T13:08:00.271Z,0.00
2022-12-19T13:10:31.902Z,0.20
2022-12-19T13:13:02.730Z,0.00
2022-12-19T13:15:39.793Z,0.17
2022-12-19T13:18:15.968Z,0.32
2022-12-19T13:20:46.094Z,0.20
2022-12-19T13:23:49.931Z,0.00
2022-12-19T13:26:52.416Z,0.28
2022-12-19T13:29:31.731Z,0.03
2022-12-19T13:32:13.626Z,0.10
2022-12-19T13:34:48.808Z,0.15
2022-12-19T13:39:57.248Z,1.08
2022-12-19T13:40:32.584Z,0.75
2022-12-19T13:43:31.468Z,0.10
2022-12-19T13:46:01.440Z,0.80
2022-12-19T13:48:32.321Z,0.40
2022-12-19T13:51:01.939Z,0.40
2022-12-19T13:53:30.731Z,0.50
2022-12-19T13:56:01.954Z,0.75
2022-12-19T13:58:32.624Z,1.63
2022-12-19T14:04:41.929Z,0.10
2022-12-19T14:07:36.965Z,0.10
2022-12-19T14:11:30.980Z,0.50
2022-12-19T14:13:50.132Z,0.23
2022-12-19T14:16:01.274Z,0.40
2022-12-19T14:18:44.253Z,1.60
2022-12-19T14:22:03.940Z,0.10
2022-12-19T14:24:15.001Z,0.80
2022-12-19T14:28:21.002Z,0.10
2022-12-19T14:30:36.531Z,0.40
2022-12-19T14:33:39.271Z,0.00
2022-12-19T14:36:10.814Z,0.20
2022-12-19T14:39:26.753Z,0.40
2022-12-19T14:42:01.073Z,0.70
2022-12-19T14:54:02.605Z,0.00
2022-12-19T14:54:06.517Z,0.97
2022-12-19T14:54:27.811Z,0.70
2022-12-19T14:54:39.880Z,0.85
2022-12-19T14:59:00.619Z,1.10
2022-12-19T15:01:30.469Z,1.00
2022-12-19T15:04:49.128Z,0.85
2022-12-19T15:07:07.333Z,0.00
2022-12-19T15:11:04.925Z,0.40
2022-12-19T15:14:51.743Z,0.80
2022-12-19T15:15:59.199Z,0.40
2022-12-19T15:18:31.478Z,0.10
2022-12-19T15:21:01.458Z,0.80
2022-12-19T15:23:33.809Z,0.30
2022-12-19T15:26:05.230Z,0.43
2022-12-19T15:28:40.571Z,0.10
2022-12-19T15:31:15.078Z,0.00
2022-12-19T15:34:14.511Z,0.07
2022-12-19T15:36:31.779Z,0.30
2022-12-19T15:39:05.570Z,0.08
2022-12-19T15:41:33.442Z,0.50
2022-12-19T15:44:06.636Z,0.10
2022-12-19T15:46:35.894Z,1.08
2022-12-19T15:49:08.620Z,0.05
2022-12-19T15:51:37.445Z,0.00
2022-12-19T15:54:38.727Z,0.10
2022-12-19T15:56:56.922Z,0.52
2022-12-19T15:59:36.526Z,0.10
2022-12-19T16:02:16.917Z,0.20
2022-12-19T16:04:45.451Z,0.20
2022-12-19T16:07:16.781Z,0.55
2022-12-19T16:09:46.146Z,1.20
2022-12-19T16:12:16.717Z,0.15
2022-12-19T16:14:45.073Z,0.08
2022-12-19T16:17:15.597Z,0.10
2022-12-19T16:19:44.580Z,0.52
2022-12-19T16:22:18.711Z,0.30
2022-12-19T16:24:48.227Z,0.80
2022-12-19T16:27:21.696Z,0.00
2022-12-19T16:29:50.902Z,0.00
2022-12-19T16:32:22.937Z,0.00
2022-12-19T16:34:51.730Z,0.00
2022-12-19T16:37:20.315Z,0.10
2022-12-19T16:39:49.322Z,0.30
2022-12-19T16:42:18.360Z,0.20
2022-12-19T16:44:47.108Z,0.15
2022-12-19T16:47:17.727Z,0.00
2022-12-19T16:49:46.264Z,0.30
2022-12-19T16:52:14.124Z,0.20
2022-12-19T16:54:42.167Z,0.38
2022-12-19T16:57:19.616Z,1.20
2022-12-19T16:59:47.778Z,0.00
2022-12-19T17:02:36.773Z,0.50
2022-12-19T17:05:05.240Z,0.30
2022-12-19T17:07:33.235Z,0.60
2022-12-19T17:10:01.096Z,0.20
2022-12-19T17:12:31.027Z,0.90
2022-12-19T17:14:59.761Z,0.00
2022-12-19T17:17:28.308Z,0.80
2022-12-19T17:19:56.235Z,0.17
2022-12-19T17:22:24.109Z,0.30
2022-12-19T17:24:51.778Z,0.10
2022-12-19T17:27:21.004Z,0.00
2022-12-19T17:29:50.225Z,0.60
2022-12-19T17:32:23.965Z,0.40
2022-12-19T17:34:53.804Z,0.20
2022-12-19T17:37:23.056Z,0.10
2022-12-19T17:39:50.903Z,0.60
2022-12-19T17:42:22.614Z,0.10
2022-12-19T17:44:53.115Z,0.70
2022-12-19T17:47:21.559Z,0.70
2022-12-19T17:49:50.322Z,0.28
2022-12-19T17:52:20.114Z,0.10
2022-12-19T17:54:48.333Z,0.50
2022-12-19T17:57:17.322Z,0.32
2022-12-19T17:59:46.687Z,0.00
2022-12-19T18:02:29.973Z,0.10
2022-12-19T18:04:58.487Z,0.25
2022-12-19T18:07:26.770Z,0.00
2022-12-19T18:09:57.207Z,0.20
2022-12-19T18:12:25.299Z,0.10
2022-12-19T18:14:53.123Z,0.00
2022-12-19T18:17:24.352Z,1.00
2022-12-19T18:19:54.223Z,0.10
2022-12-19T18:22:22.191Z,0.20
2022-12-19T18:24:50.266Z,0.00
2022-12-19T18:27:18.979Z,0.63
2022-12-19T18:29:48.530Z,0.57
2022-12-19T18:32:19.052Z,0.08
2022-12-19T18:34:49.156Z,0.47
2022-12-19T18:37:18.798Z,0.10
2022-12-19T18:39:47.069Z,0.70
2022-12-19T18:42:20.759Z,0.55
2022-12-19T18:44:49.181Z,0.20
2022-12-19T18:47:21.141Z,0.20
2022-12-19T18:49:52.741Z,0.30
2022-12-19T18:52:21.635Z,0.20
2022-12-19T18:54:51.683Z,0.10
2022-12-19T18:57:20.303Z,1.00
2022-12-19T18:59:48.568Z,1.25
2022-12-19T19:02:25.861Z,2.00
2022-12-19T19:04:57.052Z,3.13
2022-12-19T19:07:24.879Z,4.45
2022-12-19T19:09:54.108Z,4.72
2022-12-19T19:12:22.603Z,5.18
2022-12-19T19:14:52.177Z,5.05
2022-12-19T19:17:25.888Z,4.90
2022-12-19T19:19:53.867Z,4.15
2022-12-19T19:22:23.392Z,4.72
2022-12-19T19:24:52.088Z,4.78
2022-12-19T19:27:19.854Z,4.65
2022-12-19T19:29:48.514Z,4.63
2022-12-19T19:32:16.865Z,4.40
2022-12-19T19:34:47.063Z,4.82
2022-12-19T19:37:16.224Z,4.53
2022-12-19T19:39:46.081Z,3.88
2022-12-19T19:42:14.872Z,4.70
2022-12-19T19:44:42.606Z,3.97
2022-12-19T19:47:10.566Z,4.32
2022-12-19T19:49:38.422Z,4.20
2022-12-19T19:52:06.465Z,4.40
2022-12-19T19:54:35.903Z,4.18
2022-12-19T19:57:05.526Z,4.45
2022-12-19T19:59:33.359Z,4.05
2022-12-19T20:02:03.352Z,4.30
2022-12-19T20:04:31.990Z,4.30
2022-12-19T20:06:59.974Z,3.85
2022-12-19T20:09:28.049Z,4.10
2022-12-19T20:11:56.767Z,4.07
2022-12-19T20:14:27.917Z,4.05
2022-12-19T20:16:56.759Z,4.20
2022-12-19T20:19:24.851Z,3.95
2022-12-19T20:21:53.082Z,3.47
2022-12-19T20:24:21.223Z,3.67
2022-12-19T20:26:49.173Z,3.90
2022-12-19T20:29:17.035Z,3.97
2022-12-19T20:31:48.698Z,3.33
2022-12-19T20:34:16.773Z,3.80
2022-12-19T20:36:46.804Z,3.70
2022-12-19T20:42:56.466Z,4.10
2022-12-19T20:45:24.505Z,3.92
2022-12-19T20:47:55.492Z,3.50
2022-12-19T20:50:25.165Z,3.67
2022-12-19T20:52:53.039Z,3.50
2022-12-19T20:55:21.519Z,3.60
2022-12-19T20:57:49.430Z,3.42
2022-12-19T21:04:02.252Z,3.22
2022-12-19T21:06:30.337Z,3.53
2022-12-19T21:08:58.908Z,4.05
2022-12-19T21:11:28.762Z,3.55
2022-12-19T21:13:57.562Z,4.00
2022-12-19T21:16:27.487Z,4.03
2022-12-19T21:18:56.163Z,3.40
2022-12-19T21:21:27.488Z,3.10
2022-12-19T21:23:56.245Z,3.40
2022-12-19T21:26:25.902Z,3.40
2022-12-19T21:28:53.886Z,4.10
2022-12-19T21:31:25.226Z,2.97
2022-12-19T21:33:55.418Z,3.60
2022-12-19T21:36:29.877Z,3.75
2022-12-19T21:39:00.499Z,3.07
2022-12-19T21:41:29.402Z,3.80
2022-12-19T21:43:57.539Z,3.67
2022-12-19T21:46:27.454Z,3.73
2022-12-19T21:48:57.390Z,3.40
2022-12-19T21:51:31.995Z,3.30
2022-12-19T21:54:01.666Z,3.50
2022-12-19T21:56:31.726Z,3.83
2022-12-19T21:59:01.908Z,4.07
2022-12-19T22:01:30.898Z,3.53
2022-12-19T22:04:00.544Z,3.60
2022-12-19T22:06:33.176Z,3.80
2022-12-19T22:09:02.229Z,3.53
2022-12-19T22:11:30.700Z,3.50
2022-12-19T22:14:00.167Z,3.20
2022-12-19T22:16:29.384Z,3.57
2022-12-19T22:22:39.526Z,3.63
2022-12-19T22:25:08.403Z,3.72
2022-12-19T22:27:36.279Z,3.20
2022-12-19T22:30:10.567Z,3.38
2022-12-19T22:32:39.913Z,3.60
2022-12-19T22:35:08.485Z,3.70
2022-12-19T22:37:36.925Z,3.80
2022-12-19T23:13:33.707Z,3.00
